createdAt,value
2018-04-07T00:06:22.541Z,5.33
2018-04-07T00:09:34.276Z,5.93
2018-04-07T00:19:39.706Z,5.93
2018-04-07T00:22:45.116Z,6.30
2018-04-07T00:25:54.730Z,6.30
2018-04-07T00:32:44.302Z,6.07
2018-04-07T00:35:52.004Z,6.20
2018-04-07T00:42:39.032Z,6.03
2018-04-07T00:45:54.464Z,6.80
2018-04-07T00:48:57.692Z,6.60
2018-04-07T00:52:24.805Z,6.07
2018-04-07T00:55:28.544Z,6.60
2018-04-07T00:58:49.137Z,6.30
2018-04-07T01:02:17.195Z,6.57
2018-04-07T01:09:01.188Z,7.17
2018-04-07T01:12:18.190Z,6.63
2018-04-07T01:18:49.060Z,6.60
2018-04-07T01:25:26.830Z,8.70
2018-04-07T01:28:30.236Z,10.90
2018-04-07T01:31:35.676Z,14.80
2018-04-07T01:34:39.445Z,12.37
2018-04-07T01:37:44.200Z,8.60
2018-04-07T01:41:07.838Z,7.57
2018-04-07T01:44:15.656Z,6.93
2018-04-07T01:47:21.090Z,7.23
2018-04-07T01:53:59.112Z,7.77
2018-04-07T01:57:27.466Z,6.70
2018-04-07T02:00:32.860Z,7.23
2018-04-07T02:10:31.932Z,6.63
2018-04-07T02:17:09.564Z,7.23
2018-04-07T02:20:31.611Z,8.23
2018-04-07T02:23:35.119Z,7.57
2018-04-07T02:26:44.644Z,7.70
2018-04-07T02:29:54.228Z,7.43
2018-04-07T02:32:58.551Z,7.10
2018-04-07T02:36:02.322Z,7.50
2018-04-07T02:39:23.990Z,7.60
2018-04-07T02:42:33.811Z,7.33
2018-04-07T02:49:05.056Z,7.03
2018-04-07T02:52:28.507Z,7.13
2018-04-07T02:55:36.916Z,7.27
2018-04-07T03:02:30.628Z,6.93
2018-04-07T03:05:50.625Z,6.80
2018-04-07T03:12:21.849Z,7.17
2018-04-07T03:15:45.831Z,6.63
2018-04-07T03:19:03.145Z,7.00
2018-04-07T03:25:40.741Z,6.70
2018-04-07T03:32:17.980Z,7.00
2018-04-07T03:35:28.673Z,6.60
2018-04-07T03:38:36.248Z,6.67
2018-04-07T03:45:07.485Z,6.60
2018-04-07T03:48:11.731Z,6.90
2018-04-07T03:51:31.654Z,6.80
2018-04-07T03:54:59.908Z,6.83
2018-04-07T04:05:05.416Z,7.50
2018-04-07T04:11:44.831Z,7.33
2018-04-07T04:14:52.108Z,6.60
2018-04-07T04:21:23.869Z,6.63
2018-04-07T04:24:46.183Z,7.40
2018-04-07T04:35:03.129Z,6.80
2018-04-07T04:38:12.429Z,6.97
2018-04-07T04:41:15.917Z,7.10
2018-04-07T04:44:21.385Z,7.47
2018-04-07T04:47:24.766Z,7.47
2018-04-07T05:01:12.424Z,7.80
2018-04-07T05:07:53.401Z,7.13
2018-04-07T05:11:12.360Z,7.73
2018-04-07T05:21:23.022Z,7.83
2018-04-07T05:28:13.064Z,7.57
2018-04-07T05:38:14.661Z,7.63
2018-04-07T05:44:52.779Z,8.00
2018-04-07T05:51:36.241Z,7.13
2018-04-07T05:54:39.433Z,7.30
2018-04-07T05:57:50.064Z,8.33
2018-04-07T06:01:06.039Z,7.80
2018-04-07T06:04:09.637Z,7.33
2018-04-07T06:07:15.163Z,7.70
2018-04-07T06:10:22.979Z,8.23
2018-04-07T06:13:26.856Z,8.07
2018-04-07T06:19:58.096Z,8.07
2018-04-07T06:26:33.820Z,8.60
2018-04-07T06:29:48.816Z,7.77
2018-04-07T06:36:20.279Z,8.10
2018-04-07T06:42:53.876Z,8.37
2018-04-07T06:56:39.694Z,8.27
2018-04-07T07:00:01.440Z,8.53
2018-04-07T07:03:10.860Z,8.80
2018-04-07T07:06:33.005Z,8.20
2018-04-07T07:13:09.820Z,8.80
2018-04-07T07:30:25.544Z,9.13
2018-04-07T07:33:29.040Z,8.50
2018-04-07T07:40:00.980Z,9.13
2018-04-07T07:43:04.392Z,9.00
2018-04-07T07:56:39.704Z,8.80
2018-04-07T08:03:10.932Z,9.57
2018-04-07T08:06:22.812Z,10.13
2018-04-07T08:09:33.403Z,9.33
2018-04-07T08:12:40.424Z,9.40
2018-04-07T08:19:19.913Z,9.70
2018-04-07T08:22:23.439Z,8.53
2018-04-07T08:25:47.188Z,9.93
2018-04-07T08:32:23.353Z,9.40
2018-04-07T08:35:37.000Z,9.17
2018-04-07T08:38:46.859Z,10.10
2018-04-07T08:42:03.644Z,9.30
2018-04-07T08:48:35.749Z,9.23
2018-04-07T08:51:52.424Z,9.90
2018-04-07T08:54:56.876Z,9.17
2018-04-07T08:58:11.916Z,9.33
2018-04-07T09:01:15.400Z,10.13
2018-04-07T09:04:18.938Z,10.60
2018-04-07T09:07:22.468Z,8.90
2018-04-07T09:14:05.518Z,10.60
2018-04-07T09:17:18.576Z,10.03
2018-04-07T09:20:29.887Z,9.53
2018-04-07T09:23:38.324Z,9.07
2018-04-07T09:30:22.044Z,10.17
2018-04-07T09:33:27.593Z,9.53
2018-04-07T09:40:01.068Z,9.60
2018-04-07T09:43:10.419Z,10.00
2018-04-07T09:46:25.372Z,10.03
2018-04-07T09:49:38.795Z,9.87
2018-04-07T09:52:42.208Z,10.03
2018-04-07T09:55:46.655Z,10.83
2018-04-07T09:59:14.716Z,10.83
2018-04-07T10:02:23.388Z,10.90
2018-04-07T10:05:39.192Z,11.03
2018-04-07T10:12:16.993Z,11.13
2018-04-07T10:22:22.240Z,11.17
2018-04-07T10:28:53.942Z,10.50
2018-04-07T10:35:43.354Z,10.87
2018-04-07T10:42:17.290Z,11.17
2018-04-07T10:45:22.767Z,10.97
2018-04-07T10:48:28.380Z,10.53
2018-04-07T10:51:43.376Z,10.07
2018-04-07T10:54:47.887Z,10.10
2018-04-07T10:58:01.799Z,10.07
2018-04-07T11:01:16.629Z,12.03
2018-04-07T11:08:06.312Z,10.63
2018-04-07T11:11:11.904Z,10.63
2018-04-07T11:14:25.842Z,11.20
2018-04-07T11:17:45.331Z,11.67
2018-04-07T11:20:50.821Z,10.93
2018-04-07T11:24:11.389Z,10.57
2018-04-07T11:30:53.364Z,9.70
2018-04-07T11:34:12.723Z,10.87
2018-04-07T11:41:02.341Z,10.00
2018-04-07T11:44:05.793Z,10.80
2018-04-07T11:47:33.412Z,10.47
2018-04-07T11:50:59.789Z,9.60
2018-04-07T11:54:03.192Z,10.80
2018-04-07T11:57:10.067Z,10.13
2018-04-07T12:03:41.401Z,9.40
2018-04-07T12:06:44.856Z,10.70
2018-04-07T12:13:16.580Z,10.10
2018-04-07T12:16:33.367Z,9.20
2018-04-07T12:19:36.861Z,10.23
2018-04-07T12:22:58.787Z,9.87
2018-04-07T12:26:03.552Z,9.20
2018-04-07T12:29:07.040Z,9.97
2018-04-07T12:36:03.732Z,9.60
2018-04-07T12:42:54.846Z,9.37
2018-04-07T12:49:45.552Z,8.97
2018-04-07T12:56:35.388Z,8.63
2018-04-07T13:03:07.255Z,9.80
2018-04-07T13:06:21.849Z,8.77
2018-04-07T13:09:37.585Z,8.97
2018-04-07T13:12:43.035Z,8.70
2018-04-07T13:15:50.344Z,9.10
2018-04-07T13:19:06.625Z,7.80
2018-04-07T13:22:17.865Z,6.93
2018-04-07T13:25:34.415Z,8.80
2018-04-07T13:28:45.305Z,7.63
2018-04-07T13:32:07.537Z,6.80
2018-04-07T13:42:07.316Z,5.27
2018-04-07T13:45:28.827Z,4.60
2018-04-07T13:48:50.326Z,5.60
2018-04-07T13:52:06.833Z,5.33
2018-04-07T13:55:14.726Z,4.83
2018-04-07T13:58:32.883Z,4.43
2018-04-07T14:01:50.376Z,4.67
2018-04-07T14:05:01.153Z,4.83
2018-04-07T14:08:19.475Z,5.03
2018-04-07T14:11:28.423Z,4.37
2018-04-07T14:14:37.564Z,4.00
2018-04-07T14:21:31.472Z,3.23
2018-04-07T14:24:35.052Z,3.30
2018-04-07T14:27:44.176Z,3.87
2018-04-07T14:30:51.234Z,3.00
2018-04-07T14:33:54.714Z,3.40
2018-04-07T14:37:00.364Z,3.35
2018-04-07T14:40:26.575Z,3.70
2018-04-07T14:43:32.012Z,3.63
2018-04-07T14:46:35.536Z,3.47
2018-04-07T14:49:43.684Z,3.33
2018-04-07T14:52:46.911Z,3.53
2018-04-07T14:55:55.174Z,3.60
2018-04-07T14:59:01.512Z,3.03
2018-04-07T15:02:04.996Z,3.43
2018-04-07T15:05:13.116Z,3.23
2018-04-07T15:08:16.560Z,3.53
2018-04-07T15:11:27.101Z,3.73
2018-04-07T15:14:49.814Z,4.17
2018-04-07T15:17:53.309Z,3.67
2018-04-07T15:21:16.160Z,3.17
2018-04-07T15:24:32.780Z,3.27
2018-04-07T15:27:46.839Z,3.00
2018-04-07T15:30:51.336Z,2.40
2018-04-07T15:33:54.789Z,2.87
2018-04-07T15:37:10.683Z,2.87
2018-04-07T15:40:17.524Z,2.90
2018-04-07T15:43:21.999Z,3.00
2018-04-07T15:46:35.927Z,2.70
2018-04-07T15:49:39.401Z,2.77
2018-04-07T15:52:56.969Z,2.70
2018-04-07T15:56:01.645Z,2.87
2018-04-07T15:59:05.048Z,2.80
2018-04-07T16:02:08.505Z,3.30
2018-04-07T16:05:34.821Z,3.03
2018-04-07T16:08:48.766Z,3.77
2018-04-07T16:11:57.700Z,4.47
2018-04-07T16:18:44.616Z,4.20
2018-04-07T16:21:50.353Z,3.70
2018-04-07T16:24:53.880Z,3.53
2018-04-07T16:27:58.201Z,2.87
2018-04-07T16:31:07.340Z,2.70
2018-04-07T16:34:10.788Z,2.60
2018-04-07T16:37:26.596Z,2.40
2018-04-07T16:40:46.612Z,2.83
2018-04-07T16:44:01.043Z,2.90
2018-04-07T16:47:22.172Z,2.80
2018-04-07T16:50:31.219Z,2.80
2018-04-07T16:53:48.184Z,3.13
2018-04-07T16:56:51.848Z,3.00
2018-04-07T17:00:07.357Z,2.70
2018-04-07T17:03:11.668Z,3.17
2018-04-07T17:06:25.271Z,3.10
2018-04-07T17:09:34.391Z,3.07
2018-04-07T17:19:50.479Z,2.20
2018-04-07T17:22:54.088Z,2.57
2018-04-07T17:26:17.981Z,2.70
2018-04-07T17:29:21.234Z,2.73
2018-04-07T17:32:34.368Z,2.60
2018-04-07T17:35:37.918Z,2.80
2018-04-07T17:42:32.612Z,3.30
2018-04-07T17:45:39.959Z,4.00
2018-04-07T17:48:46.111Z,4.93
2018-04-07T17:52:10.240Z,4.60
2018-04-07T17:55:33.486Z,5.30
2018-04-07T17:58:42.697Z,6.73
2018-04-07T18:01:56.108Z,5.20
2018-04-07T18:05:06.884Z,5.07
2018-04-07T18:11:39.620Z,5.63
2018-04-07T18:14:43.297Z,6.30
2018-04-07T18:17:47.146Z,6.17
2018-04-07T18:20:56.537Z,6.13
2018-04-07T18:24:00.552Z,7.25
2018-04-07T18:27:03.972Z,8.93
2018-04-07T18:30:07.775Z,9.67
2018-04-07T18:33:11.317Z,8.00
2018-04-07T18:36:14.988Z,7.37
2018-04-07T18:39:18.357Z,5.97
2018-04-07T18:42:23.528Z,6.30
2018-04-07T18:45:30.577Z,5.83
2018-04-07T18:48:36.121Z,6.20
2018-04-07T18:51:39.680Z,6.20
2018-04-07T18:54:44.872Z,5.73
2018-04-07T18:58:00.923Z,6.23
2018-04-07T19:01:04.326Z,6.60
2018-04-07T19:04:08.294Z,6.60
2018-04-07T19:07:12.005Z,7.00
2018-04-07T19:10:15.701Z,6.27
2018-04-07T19:13:19.260Z,8.07
2018-04-07T19:16:22.517Z,7.57
2018-04-07T19:19:25.830Z,6.30
2018-04-07T19:22:36.849Z,6.73
2018-04-07T19:29:11.185Z,6.33
2018-04-07T19:32:26.941Z,5.43
2018-04-07T19:39:03.584Z,5.30
2018-04-07T19:52:30.592Z,6.37
2018-04-07T19:55:35.139Z,6.23
2018-04-07T20:02:23.631Z,5.20
2018-04-07T20:05:29.085Z,5.73
2018-04-07T20:08:32.851Z,5.60
2018-04-07T20:11:36.295Z,4.77
2018-04-07T20:14:39.512Z,5.00
2018-04-07T20:17:44.903Z,5.17
2018-04-07T20:20:48.664Z,4.93
2018-04-07T20:23:52.079Z,5.40
2018-04-07T20:26:55.593Z,5.17
2018-04-07T20:29:58.809Z,5.37
2018-04-07T20:33:02.372Z,5.23
2018-04-07T20:36:05.633Z,5.00
2018-04-07T20:39:09.432Z,5.40
2018-04-07T20:42:21.787Z,5.13
2018-04-07T20:45:27.440Z,5.50
2018-04-07T20:48:30.921Z,5.10
2018-04-07T20:51:34.153Z,5.77
2018-04-07T20:58:06.417Z,5.17
2018-04-07T21:01:20.810Z,5.67
2018-04-07T21:04:24.972Z,5.20
2018-04-07T21:11:09.103Z,5.77
2018-04-07T21:14:12.629Z,5.40
2018-04-07T21:17:16.153Z,5.30
2018-04-07T21:20:19.413Z,5.67
2018-04-07T21:23:22.877Z,6.60
2018-04-07T21:26:26.358Z,5.73
2018-04-07T21:29:29.829Z,6.37
2018-04-07T21:32:33.334Z,6.20
2018-04-07T21:35:37.840Z,6.40
2018-04-07T21:38:41.345Z,6.30
2018-04-07T21:41:44.892Z,6.30
2018-04-07T21:45:01.984Z,6.60
2018-04-07T21:48:06.852Z,6.40
2018-04-07T21:51:21.285Z,7.30
2018-04-07T21:54:25.625Z,6.83
2018-04-07T21:57:52.919Z,6.83
2018-04-07T22:04:35.971Z,6.57
2018-04-07T22:07:47.496Z,6.87
2018-04-07T22:11:03.284Z,7.27
2018-04-07T22:17:37.809Z,6.70
2018-04-07T22:24:30.141Z,6.83
2018-04-07T22:27:33.692Z,7.10
2018-04-07T22:30:48.817Z,7.23
2018-04-07T22:33:58.666Z,7.10
2018-04-07T22:37:13.700Z,7.07
2018-04-07T22:40:16.982Z,6.90
2018-04-07T22:47:00.254Z,7.30
2018-04-07T22:50:04.160Z,7.43
2018-04-07T22:56:47.392Z,7.83
2018-04-07T23:06:47.457Z,7.87
2018-04-07T23:13:18.793Z,8.17
2018-04-07T23:16:46.910Z,8.17
2018-04-07T23:20:08.640Z,8.10
2018-04-07T23:33:59.896Z,8.13
2018-04-07T23:37:27.613Z,7.67
2018-04-07T23:44:09.186Z,7.90
2018-04-07T23:47:14.609Z,8.27
2018-04-07T23:50:23.892Z,7.87
2018-04-07T23:56:55.609Z,7.70
2018-04-07T23:59:59.050Z,7.63
